Washington Dulles International Airport
KIAD : now visible

Aeroporto :











RITROVATECI SU...

 
LOGIN :

Iscrizione | Disclaimer

   EN    FR    IT 

 









Sommario :    VFR   VFR Marginale   IFR   IFR Intensivo   IFR Molto Intensivo
Visibilità : 
Base nubi : 
>= 8 km
>= 3000ft
5 / 8 km
1000 / 3000 ft
1500m / 5 km
500 / 1000 ft
800 / 1500m
200 / 500 ft
< 800m
< 200 ft
Simboli :   Temporali  Nebbia  Neve Forte  Precipitazioni Forti  Vento > 20 kt







- Altitudine del aeroporto : 312 ft
- Codice IATA : IAD


KIAD - Washington Dulles International

ULTIMO METAR :
  • 250352Z 02003KT 10SM SCT065 OVC080 19/13 A3022 RMK AO2 SLP230 T01940133 $

METARs OBSOLETI :
  • 250252Z 04005KT 10SM OVC080 19/13 A3022 RMK AO2 SLP231 T01940128 51014 $
  • 250152Z 05005KT 10SM SCT080 19/13 A3021 RMK AO2 SLP228 T01940128 $

TAF KIAD
Valido dal 25 a 00 ore il 26 a 06 ore UTC


242320Z 2500/2606 02005KT P6SM FEW040 SCT250
FM250900 VRB03KT 6SM BR FEW050 FEW250
FM251200 01005KT P6SM FEW040 SCT250
FM251500 05009KT P6SM SCT050 SCT250
FM252200 07008KT P6SM FEW050 SCT250
Nessun NOTAM noto per questo aeroporto.



MetMap, La meteo Aeronautica in un colpo d'occhio ! - Copyright ORBIFLY Dicembre 2007 - Disclaimer

ORBIFLY MET'MAP TEAM :

Programmazione e sviluppo : Alexandra Zaïnal
Concezione e sviluppo : Baudouin d'Aumeries
Co-Programmazione e sviluppo : Marc-Olivier Méhu
Supporto tecnico e logistico : Manuel Goepfert
Aiuto per la traduzione : Arnaldo La Scala

Contatto : metmap@orbifly.com




FONTI E CREDITI :

   NOAA       Earth
Advisory